Argyle, Michigan
Current Conditions -  °F | °C
As of 3:38 AM on Tuesday 21 Oct 2014 (Local Time) from KBAX Reporting Station
Light Rain Light Rain  
Wind Chill: 43°   Ceiling: 600
Heat Index: 47°   Visibility: 10mi
Dew Point: 47°   Wind: 7mph
Humidity: 100%   Direction: 10°N
Pressure: 29.89"   Gusts: NA
Location:  43.56°N, 82.94°W
Report Text: KBAX 210738Z AUTO 01006KT 10SM -RA OVC006 08/08 A2989 RMK AO2 T00820082
Loading
Personal Weather Stations






























Interactive Weather Map
Tropical Storm Tracking
New forecast layout! Learn more

10-Day Weather Forecast

Advertisements
Track Severe Weather on mobile